Time;durP1;ratioP1;P1;durP2;ratioP2;P2;SDS_P1;SDS_P2;PMS_P1;PMS_P2;Temp;Humidity;BMP_temperature;BMP_pressure;BME280_temperature;BME280_humidity;BME280_pressure;Samples;Min_cycle;Max_cycle;Signal;HPM_P1;HPM_P2
2023/12/17 00:01:07;;;;;;;15.77;12.37;;;10.30;99.90;;;;;;5034768;28;20529;-89
2023/12/17 00:03:33;;;;;;;14.27;12.17;;;10.30;99.90;;;;;;5033519;28;20228;-87
2023/12/17 00:05:58;;;;;;;14.07;11.73;;;10.30;99.90;;;;;;5033888;28;20189;-91
2023/12/17 00:08:24;;;;;;;15.67;11.83;;;10.40;99.90;;;;;;5034631;28;20204;-89
2023/12/17 00:10:50;;;;;;;12.87;11.57;;;10.30;99.90;;;;;;5034481;28;20220;-92
2023/12/17 00:13:17;;;;;;;13.87;12.07;;;10.30;99.90;;;;;;5034499;28;20219;-89
2023/12/17 00:15:42;;;;;;;16.27;12.03;;;10.30;99.90;;;;;;5034047;28;20215;-88
2023/12/17 00:18:10;;;;;;;13.43;11.30;;;10.30;99.90;;;;;;5034185;28;20275;-90
2023/12/17 00:20:36;;;;;;;14.97;11.97;;;10.30;99.90;;;;;;5033505;28;20193;-92
2023/12/17 00:23:04;;;;;;;14.23;12.07;;;10.30;99.90;;;;;;5034441;28;20544;-90
2023/12/17 00:25:33;;;;;;;17.60;13.03;;;10.20;99.90;;;;;;5035536;28;20292;-88
2023/12/17 00:27:58;;;;;;;14.63;12.33;;;10.30;99.90;;;;;;5037113;28;20174;-88
2023/12/17 00:30:24;;;;;;;14.87;13.17;;;10.30;99.90;;;;;;5034108;28;20185;-89
2023/12/17 00:32:50;;;;;;;15.00;13.10;;;10.30;99.90;;;;;;5036454;28;20251;-89
2023/12/17 00:35:16;;;;;;;16.17;13.40;;;10.30;99.90;;;;;;5038076;28;20176;-90
2023/12/17 00:37:41;;;;;;;15.10;12.43;;;10.30;99.90;;;;;;5045682;28;20255;-86
2023/12/17 00:40:08;;;;;;;17.13;13.33;;;10.30;99.90;;;;;;5037373;28;20272;-90
2023/12/17 00:42:33;;;;;;;17.90;12.87;;;10.30;99.90;;;;;;5035558;28;20199;-88
2023/12/17 00:45:02;;;;;;;15.00;12.23;;;10.20;99.90;;;;;;5034350;28;20217;-88
2023/12/17 00:47:28;;;;;;;15.87;12.30;;;10.20;99.90;;;;;;5034329;28;20166;-92
2023/12/17 00:49:54;;;;;;;14.90;12.80;;;10.20;99.90;;;;;;5033484;28;20284;-92
2023/12/17 00:52:21;;;;;;;13.77;11.83;;;10.10;99.90;;;;;;5033143;28;20213;-92
2023/12/17 00:54:48;;;;;;;15.03;11.90;;;10.10;99.90;;;;;;5033518;28;20174;-90
2023/12/17 00:57:14;;;;;;;14.77;12.03;;;10.20;99.90;;;;;;5032897;28;20196;-91
2023/12/17 00:59:39;;;;;;;13.67;11.60;;;10.10;99.90;;;;;;5033537;28;20170;-90
2023/12/17 01:02:05;;;;;;;15.83;11.30;;;10.10;99.90;;;;;;5033749;28;20180;-89
2023/12/17 01:04:31;;;;;;;15.00;11.27;;;10.10;99.90;;;;;;5032742;28;20165;-91
2023/12/17 01:06:57;;;;;;;14.53;10.97;;;10.00;99.90;;;;;;5032769;28;20196;-90
2023/12/17 01:09:22;;;;;;;13.77;12.13;;;10.20;99.90;;;;;;5032606;28;20209;-89
2023/12/17 01:11:48;;;;;;;13.13;11.03;;;10.10;99.90;;;;;;5033117;28;20177;-91
2023/12/17 01:14:14;;;;;;;14.23;11.97;;;10.10;99.90;;;;;;5034185;28;20547;-92
2023/12/17 01:16:39;;;;;;;12.87;11.40;;;10.10;99.90;;;;;;5033092;28;20555;-90
2023/12/17 01:19:05;;;;;;;13.03;10.80;;;10.00;99.90;;;;;;5033129;28;20185;-87
2023/12/17 01:21:31;;;;;;;13.50;11.53;;;10.10;99.90;;;;;;5032950;28;20181;-91
2023/12/17 01:23:59;;;;;;;15.63;12.17;;;10.20;99.90;;;;;;5032963;28;20189;-87
2023/12/17 01:26:26;;;;;;;16.70;13.30;;;10.30;99.90;;;;;;5033321;28;20199;-89
2023/12/17 01:29:01;;;;;;;14.67;11.80;;;10.20;99.90;;;;;;5033018;28;20703;-88
2023/12/17 01:31:26;;;;;;;15.10;12.33;;;10.30;99.90;;;;;;5032776;28;20263;-91
2023/12/17 01:33:52;;;;;;;16.10;12.67;;;10.10;99.90;;;;;;5032662;28;20307;-91
2023/12/17 01:36:18;;;;;;;19.33;14.23;;;10.10;99.90;;;;;;5032402;28;20255;-91
2023/12/17 01:38:43;;;;;;;17.93;13.37;;;10.10;99.90;;;;;;5032441;28;20181;-90
2023/12/17 01:41:10;;;;;;;14.53;12.73;;;10.00;99.90;;;;;;5032512;28;20641;-88
2023/12/17 01:43:37;;;;;;;15.93;13.13;;;10.00;99.90;;;;;;5032557;28;20262;-87
2023/12/17 01:46:02;;;;;;;17.63;14.27;;;10.00;99.90;;;;;;5032245;28;20177;-90
2023/12/17 01:48:29;;;;;;;18.70;14.67;;;10.00;99.90;;;;;;5032383;28;20638;-88
2023/12/17 01:50:55;;;;;;;17.93;13.93;;;10.00;99.90;;;;;;5032360;28;20174;-90
2023/12/17 01:53:22;;;;;;;17.37;13.77;;;10.00;99.90;;;;;;5032761;28;20233;-89
2023/12/17 01:55:49;;;;;;;19.70;14.30;;;9.90;99.90;;;;;;5032554;28;20561;-90
2023/12/17 01:58:16;;;;;;;16.67;14.30;;;10.00;99.90;;;;;;5033565;28;20245;-90
2023/12/17 02:00:42;;;;;;;17.93;15.17;;;10.00;99.90;;;;;;5032262;28;20626;-89
2023/12/17 02:03:08;;;;;;;16.30;13.63;;;10.00;99.90;;;;;;5032941;28;20264;-91
2023/12/17 02:05:35;;;;;;;17.50;14.53;;;9.90;99.90;;;;;;5032771;28;20209;-87
2023/12/17 02:08:04;;;;;;;18.03;13.73;;;9.90;99.90;;;;;;5032776;28;20181;-87
2023/12/17 02:10:30;;;;;;;18.57;14.30;;;9.90;99.90;;;;;;5033809;28;20190;-89
2023/12/17 02:12:59;;;;;;;18.07;14.30;;;9.90;99.90;;;;;;5032500;28;20347;-90
2023/12/17 02:15:25;;;;;;;15.83;13.57;;;9.90;99.90;;;;;;5032951;28;20205;-89
2023/12/17 02:17:51;;;;;;;15.40;13.60;;;9.80;99.90;;;;;;5037059;28;20247;-89
2023/12/17 02:20:17;;;;;;;19.50;13.93;;;9.80;99.90;;;;;;5037893;28;20289;-90
2023/12/17 02:22:44;;;;;;;18.87;14.30;;;9.80;99.90;;;;;;5035767;28;20676;-90
2023/12/17 02:25:10;;;;;;;18.47;14.77;;;9.80;99.90;;;;;;5035838;28;20197;-92
2023/12/17 02:27:36;;;;;;;17.57;13.57;;;9.90;99.90;;;;;;5035660;28;20637;-88
2023/12/17 02:30:02;;;;;;;18.07;14.57;;;9.80;99.90;;;;;;5035736;28;20186;-89
2023/12/17 02:32:29;;;;;;;16.50;13.53;;;9.80;99.90;;;;;;5036128;28;20217;-88
2023/12/17 02:34:54;;;;;;;16.53;13.97;;;9.70;99.90;;;;;;5035980;28;20185;-88
2023/12/17 02:37:21;;;;;;;15.33;13.20;;;9.70;99.90;;;;;;5036001;28;20216;-90
2023/12/17 02:39:46;;;;;;;16.97;13.30;;;9.70;99.90;;;;;;5036259;28;20189;-90
2023/12/17 02:42:12;;;;;;;14.70;13.00;;;9.70;99.90;;;;;;5035991;28;20173;-90
2023/12/17 02:44:38;;;;;;;18.63;13.20;;;9.70;99.90;;;;;;5035993;28;20252;-90
2023/12/17 02:47:04;;;;;;;14.63;12.40;;;9.70;99.90;;;;;;5036218;28;20227;-87
2023/12/17 02:49:31;;;;;;;14.90;12.40;;;9.70;99.90;;;;;;5036048;28;20233;-89
2023/12/17 02:51:57;;;;;;;15.50;13.00;;;9.60;99.90;;;;;;5035920;28;20182;-92
2023/12/17 02:54:23;;;;;;;14.93;12.30;;;9.60;99.90;;;;;;5035471;28;20652;-90
2023/12/17 02:56:49;;;;;;;16.40;11.50;;;9.50;99.90;;;;;;5036385;28;20170;-89
2023/12/17 02:59:15;;;;;;;13.43;11.50;;;9.50;99.90;;;;;;5034874;28;20184;-91
2023/12/17 03:01:42;;;;;;;16.87;12.07;;;9.50;99.90;;;;;;5034860;28;20638;-90
2023/12/17 03:04:09;;;;;;;15.00;12.30;;;9.50;99.90;;;;;;5035543;28;20182;-86
2023/12/17 03:06:39;;;;;;;14.43;11.77;;;9.60;99.90;;;;;;5036347;28;20173;-87
2023/12/17 03:09:06;;;;;;;12.50;10.77;;;9.60;99.90;;;;;;5034720;28;20182;-88
2023/12/17 03:11:32;;;;;;;13.90;11.43;;;9.60;99.90;;;;;;5034921;28;20184;-89
2023/12/17 03:13:58;;;;;;;13.17;11.63;;;9.50;99.90;;;;;;5034804;28;20665;-88
2023/12/17 03:16:25;;;;;;;12.67;10.40;;;9.60;99.90;;;;;;5035409;28;20185;-89
2023/12/17 03:18:52;;;;;;;13.93;11.83;;;9.50;99.90;;;;;;5034829;28;20724;-89
2023/12/17 03:21:18;;;;;;;12.83;10.60;;;9.50;99.90;;;;;;5035480;28;20170;-89
2023/12/17 03:23:44;;;;;;;13.50;11.47;;;9.50;99.90;;;;;;5034542;28;20209;-88
2023/12/17 03:26:11;;;;;;;13.13;11.40;;;9.50;99.90;;;;;;5034003;28;20729;-90
2023/12/17 03:28:36;;;;;;;13.67;11.30;;;9.50;99.90;;;;;;5034598;28;20170;-90
2023/12/17 03:31:03;;;;;;;13.70;11.57;;;9.60;99.90;;;;;;5034299;28;20264;-90
2023/12/17 03:33:29;;;;;;;14.20;11.80;;;9.50;99.90;;;;;;5034302;28;20198;-90
2023/12/17 03:35:55;;;;;;;14.37;12.20;;;9.60;99.90;;;;;;5034517;28;20215;-88
2023/12/17 03:38:22;;;;;;;12.73;11.13;;;9.50;99.90;;;;;;5034499;28;20212;-89
2023/12/17 03:40:47;;;;;;;13.03;10.67;;;9.40;99.90;;;;;;5034194;28;20189;-90
2023/12/17 03:43:13;;;;;;;13.20;11.30;;;9.40;99.90;;;;;;5034713;28;20173;-88
2023/12/17 03:45:39;;;;;;;13.50;11.73;;;9.40;99.90;;;;;;5034322;28;20581;-90
2023/12/17 03:48:05;;;;;;;12.63;10.60;;;9.40;99.90;;;;;;5034020;28;20265;-89
2023/12/17 03:50:31;;;;;;;13.27;10.67;;;9.40;99.90;;;;;;5033634;28;20245;-88
2023/12/17 03:52:56;;;;;;;13.93;11.13;;;9.30;99.90;;;;;;5033715;28;20239;-87
2023/12/17 03:55:22;;;;;;;16.10;11.60;;;9.40;99.90;;;;;;5033506;28;20660;-89
2023/12/17 03:57:48;;;;;;;14.50;11.40;;;9.40;99.90;;;;;;5033812;28;20199;-88
2023/12/17 04:00:15;;;;;;;13.13;10.73;;;9.50;99.90;;;;;;5033996;28;20177;-90
2023/12/17 04:02:41;;;;;;;13.03;11.27;;;9.40;99.90;;;;;;5033726;28;20223;-88
2023/12/17 04:05:08;;;;;;;12.80;10.67;;;9.40;99.90;;;;;;5035331;28;20174;-88
2023/12/17 04:07:33;;;;;;;13.37;10.83;;;9.40;99.90;;;;;;5040807;28;20193;-86
2023/12/17 04:10:03;;;;;;;14.17;10.27;;;9.30;99.90;;;;;;5037685;28;20196;-89
2023/12/17 04:12:29;;;;;;;15.57;10.63;;;9.30;99.90;;;;;;5033775;28;20277;-88
2023/12/17 04:14:55;;;;;;;13.17;10.90;;;9.30;99.90;;;;;;5033364;28;20222;-90
2023/12/17 04:17:20;;;;;;;13.30;10.90;;;9.30;99.90;;;;;;5033546;28;20268;-85
2023/12/17 04:19:47;;;;;;;13.30;10.70;;;9.30;99.90;;;;;;5033788;28;20181;-89
2023/12/17 04:22:12;;;;;;;12.07;10.60;;;9.20;99.90;;;;;;5033696;28;20216;-86
2023/12/17 04:24:39;;;;;;;14.00;10.60;;;9.20;99.90;;;;;;5033383;28;20585;-91
2023/12/17 04:27:06;;;;;;;14.40;12.07;;;9.20;99.90;;;;;;5033347;28;20243;-87
2023/12/17 04:29:32;;;;;;;14.13;10.90;;;9.20;99.90;;;;;;5033799;28;20200;-91
2023/12/17 04:31:58;;;;;;;13.00;10.87;;;9.20;99.90;;;;;;5033406;28;20641;-91
2023/12/17 04:34:23;;;;;;;13.43;10.90;;;9.10;99.90;;;;;;5033374;28;20205;-90
2023/12/17 04:36:49;;;;;;;14.57;10.97;;;9.20;99.90;;;;;;5033130;28;20197;-87
2023/12/17 04:39:15;;;;;;;13.93;11.57;;;9.30;99.90;;;;;;5032777;28;20185;-88
2023/12/17 04:41:41;;;;;;;13.83;11.63;;;9.20;99.90;;;;;;5033262;28;20551;-89
2023/12/17 04:44:07;;;;;;;13.83;11.03;;;9.20;99.90;;;;;;5034510;28;20177;-90
2023/12/17 04:46:33;;;;;;;13.27;10.40;;;9.20;99.90;;;;;;5033316;28;20205;-90
2023/12/17 04:48:59;;;;;;;12.00;9.33;;;9.20;99.90;;;;;;5033218;28;20661;-91
2023/12/17 04:51:25;;;;;;;10.77;9.43;;;9.10;99.90;;;;;;5033039;28;20216;-85
2023/12/17 04:53:51;;;;;;;12.93;10.07;;;9.10;99.90;;;;;;5033943;28;20205;-91
2023/12/17 04:56:18;;;;;;;13.27;11.20;;;9.00;99.90;;;;;;5032883;28;20180;-87
2023/12/17 04:58:43;;;;;;;12.97;11.13;;;9.10;99.90;;;;;;5032852;28;20178;-87
2023/12/17 05:01:09;;;;;;;15.23;11.13;;;9.00;99.90;;;;;;5033018;28;20653;-90
2023/12/17 05:03:36;;;;;;;15.23;12.80;;;9.00;99.90;;;;;;5033169;28;20178;-88
2023/12/17 05:06:02;;;;;;;13.57;11.63;;;9.10;99.90;;;;;;5034106;28;20176;-90
2023/12/17 05:08:28;;;;;;;15.03;11.83;;;9.10;99.90;;;;;;5032474;28;20177;-91
2023/12/17 05:10:54;;;;;;;16.37;12.83;;;9.10;99.90;;;;;;5032603;28;20732;-90
2023/12/17 05:13:19;;;;;;;14.00;11.60;;;9.10;99.90;;;;;;5033258;28;20700;-87
2023/12/17 05:15:45;;;;;;;16.77;11.77;;;9.00;99.90;;;;;;5033115;28;20201;-89
2023/12/17 05:18:11;;;;;;;14.23;11.37;;;9.00;99.90;;;;;;5032892;28;20178;-91
2023/12/17 05:20:37;;;;;;;13.07;10.80;;;8.90;99.90;;;;;;5032707;28;20188;-88
2023/12/17 05:23:03;;;;;;;13.80;10.47;;;8.90;99.90;;;;;;5032872;28;20185;-91
2023/12/17 05:25:28;;;;;;;13.07;10.57;;;8.70;99.90;;;;;;5032801;28;20189;-90
2023/12/17 05:27:54;;;;;;;12.70;9.80;;;8.70;99.90;;;;;;5032599;28;20243;-89
2023/12/17 05:30:22;;;;;;;13.73;11.20;;;8.70;99.90;;;;;;5032997;28;20626;-89
2023/12/17 05:32:48;;;;;;;13.70;9.67;;;8.70;99.90;;;;;;5032630;28;20205;-87
2023/12/17 05:35:14;;;;;;;12.90;10.00;;;8.80;99.90;;;;;;5033881;28;20170;-85
2023/12/17 05:37:40;;;;;;;15.23;10.80;;;8.70;99.90;;;;;;5033950;28;20177;-89
2023/12/17 05:40:07;;;;;;;14.20;10.27;;;8.70;99.90;;;;;;5032668;28;20188;-90
2023/12/17 05:42:33;;;;;;;15.67;11.10;;;8.70;99.90;;;;;;5032936;28;20256;-88
2023/12/17 05:44:59;;;;;;;15.17;11.37;;;8.70;99.90;;;;;;5032797;28;20184;-88
2023/12/17 05:47:24;;;;;;;19.33;13.67;;;8.60;99.90;;;;;;5033063;28;20209;-90
2023/12/17 05:49:51;;;;;;;18.53;14.37;;;8.70;99.90;;;;;;5032657;28;20205;-86
2023/12/17 05:52:17;;;;;;;22.50;16.03;;;8.70;99.90;;;;;;5035816;28;20170;-90
2023/12/17 05:54:45;;;;;;;20.33;14.93;;;8.70;99.90;;;;;;5045270;28;20166;-89
2023/12/17 05:57:11;;;;;;;26.33;18.23;;;8.60;99.90;;;;;;5055796;28;20169;-86
2023/12/17 05:59:37;;;;;;;25.93;19.50;;;8.60;99.90;;;;;;5048229;28;20178;-90
2023/12/17 06:02:03;;;;;;;29.07;19.13;;;8.60;99.90;;;;;;5038024;28;20618;-90
2023/12/17 06:04:29;;;;;;;25.30;19.30;;;8.60;99.90;;;;;;5036339;28;20184;-90
2023/12/17 06:06:58;;;;;;;27.17;20.40;;;8.70;99.90;;;;;;5035813;28;20593;-87
2023/12/17 06:09:24;;;;;;;29.03;20.43;;;8.70;99.90;;;;;;5035855;28;20284;-87
2023/12/17 06:11:51;;;;;;;27.77;20.77;;;8.60;99.90;;;;;;5035510;28;20277;-87
2023/12/17 06:14:17;;;;;;;27.93;20.70;;;8.60;99.90;;;;;;5036874;28;20212;-91
2023/12/17 06:16:44;;;;;;;32.57;21.37;;;8.70;99.90;;;;;;5037579;28;20170;-87
2023/12/17 06:19:11;;;;;;;26.70;20.80;;;8.80;99.90;;;;;;5037578;28;20178;-91
2023/12/17 06:21:37;;;;;;;30.30;21.37;;;8.70;99.90;;;;;;5036450;28;20177;-89
2023/12/17 06:24:04;;;;;;;29.90;21.83;;;8.80;99.90;;;;;;5036814;28;20184;-88
2023/12/17 06:26:31;;;;;;;31.17;21.00;;;8.80;99.90;;;;;;5036345;28;20197;-90
2023/12/17 06:28:57;;;;;;;25.47;20.03;;;8.80;99.90;;;;;;5035894;28;20200;-89
2023/12/17 06:31:24;;;;;;;28.40;19.07;;;8.70;99.90;;;;;;5036018;28;20174;-90
2023/12/17 06:33:53;;;;;;;25.67;20.27;;;8.60;99.90;;;;;;5035692;28;20232;-90
2023/12/17 06:36:19;;;;;;;28.07;19.87;;;8.60;99.90;;;;;;5035778;28;20173;-87
2023/12/17 06:38:45;;;;;;;26.43;17.70;;;8.60;99.90;;;;;;5035798;28;20169;-87
2023/12/17 06:41:11;;;;;;;27.80;19.00;;;8.70;99.90;;;;;;5035844;28;20181;-90
2023/12/17 06:43:39;;;;;;;30.10;19.47;;;8.60;99.90;;;;;;5035743;28;20320;-90
2023/12/17 06:46:06;;;;;;;29.97;18.43;;;8.60;99.90;;;;;;5035459;28;20185;-85
2023/12/17 06:48:35;;;;;;;28.47;19.17;;;8.60;99.90;;;;;;5036941;28;20162;-89
2023/12/17 06:51:02;;;;;;;27.70;17.67;;;8.60;99.90;;;;;;5037033;28;20265;-86
2023/12/17 06:53:29;;;;;;;26.33;18.63;;;8.60;99.90;;;;;;5036756;28;20213;-89
2023/12/17 06:55:55;;;;;;;34.83;19.37;;;8.60;99.90;;;;;;5036595;28;20216;-90
2023/12/17 06:58:21;;;;;;;27.63;16.87;;;8.70;99.90;;;;;;5036842;28;20185;-86
2023/12/17 07:00:46;;;;;;;34.40;17.33;;;8.70;99.90;;;;;;5035580;28;20177;-90
2023/12/17 07:03:13;;;;;;;27.43;17.07;;;8.60;99.90;;;;;;5036406;28;20173;-90
2023/12/17 07:05:38;;;;;;;28.40;16.40;;;8.50;99.90;;;;;;5035453;28;20173;-90
2023/12/17 07:08:04;;;;;;;26.87;16.23;;;8.40;99.90;;;;;;5035496;28;20593;-87
2023/12/17 07:10:30;;;;;;;27.23;16.13;;;8.50;99.90;;;;;;5035905;28;20566;-89
2023/12/17 07:12:55;;;;;;;28.93;16.80;;;8.70;99.90;;;;;;5035744;28;20208;-89
2023/12/17 07:15:21;;;;;;;24.63;15.17;;;8.70;99.90;;;;;;5037736;28;20181;-90
2023/12/17 07:17:47;;;;;;;29.43;16.63;;;8.60;99.90;;;;;;5036013;28;20185;-89
2023/12/17 07:20:13;;;;;;;25.87;15.80;;;8.60;99.90;;;;;;5035143;28;20181;-86
2023/12/17 07:22:38;;;;;;;32.07;18.23;;;8.60;99.90;;;;;;5034841;28;20640;-90
2023/12/17 07:25:05;;;;;;;34.43;18.20;;;8.50;99.90;;;;;;5034808;28;20572;-88
2023/12/17 07:27:30;;;;;;;25.50;17.17;;;8.60;99.90;;;;;;5035421;28;20178;-87
2023/12/17 07:29:56;;;;;;;26.20;17.10;;;8.60;99.90;;;;;;5035544;28;20170;-86
2023/12/17 07:32:22;;;;;;;27.13;16.63;;;8.60;99.90;;;;;;5037166;28;20173;-90
2023/12/17 07:34:47;;;;;;;29.37;16.80;;;8.50;99.90;;;;;;5048179;28;20186;-88
2023/12/17 07:37:13;;;;;;;29.97;17.37;;;8.30;99.90;;;;;;5053355;28;20250;-88
2023/12/17 07:39:39;;;;;;;28.53;16.57;;;8.30;99.90;;;;;;5054487;28;20166;-88
2023/12/17 07:42:04;;;;;;;25.87;17.03;;;8.30;99.90;;;;;;5051371;28;20190;-87
2023/12/17 07:44:30;;;;;;;28.53;17.07;;;8.30;99.90;;;;;;5045758;28;20184;-87
2023/12/17 07:46:57;;;;;;;36.37;20.27;;;8.30;99.90;;;;;;5047946;28;20184;-89
2023/12/17 07:49:23;;;;;;;34.50;20.27;;;8.30;99.90;;;;;;5036982;28;20178;-91
2023/12/17 07:51:49;;;;;;;40.53;22.80;;;8.30;99.90;;;;;;5036458;28;20182;-90
2023/12/17 07:54:16;;;;;;;35.73;23.67;;;8.20;99.90;;;;;;5035484;28;20703;-87
2023/12/17 07:56:58;;;;;;;33.63;20.83;;;8.20;99.90;;;;;;5034087;28;20170;-88
2023/12/17 07:59:25;;;;;;;32.27;19.47;;;7.90;99.90;;;;;;5034281;28;20201;-89
2023/12/17 08:01:51;;;;;;;34.23;21.03;;;7.90;99.90;;;;;;5033978;28;20312;-86
2023/12/17 08:04:17;;;;;;;37.37;21.63;;;7.90;99.90;;;;;;5033664;28;20643;-88
2023/12/17 08:06:46;;;;;;;42.10;23.57;;;7.90;99.90;;;;;;5033715;28;20196;-89
2023/12/17 08:09:12;;;;;;;42.97;25.10;;;7.90;99.90;;;;;;5033313;28;20598;-91
2023/12/17 08:11:38;;;;;;;41.83;25.17;;;8.00;99.90;;;;;;5034814;28;20178;-89
2023/12/17 08:14:03;;;;;;;39.27;23.53;;;7.90;99.90;;;;;;5033928;28;20292;-88
2023/12/17 08:16:30;;;;;;;37.03;21.40;;;7.80;99.90;;;;;;5033025;28;20659;-91
2023/12/17 08:18:56;;;;;;;37.27;21.60;;;7.80;99.90;;;;;;5033173;28;20174;-89
2023/12/17 08:21:21;;;;;;;36.07;21.30;;;7.90;99.90;;;;;;5033574;28;20696;-88
2023/12/17 08:23:48;;;;;;;35.93;21.80;;;7.80;99.90;;;;;;5033474;28;20170;-89
2023/12/17 08:26:16;;;;;;;39.43;22.83;;;7.70;99.90;;;;;;5033049;28;20216;-86
2023/12/17 08:28:42;;;;;;;36.97;21.77;;;7.50;99.90;;;;;;5033589;28;20177;-86
2023/12/17 08:31:09;;;;;;;34.63;19.83;;;7.60;99.90;;;;;;5032614;28;20164;-91
2023/12/17 08:33:36;;;;;;;34.63;18.87;;;7.50;99.90;;;;;;5033402;28;20209;-85
2023/12/17 08:36:02;;;;;;;40.93;20.23;;;7.50;99.90;;;;;;5033154;28;20158;-89
2023/12/17 08:38:29;;;;;;;36.43;21.07;;;7.60;99.90;;;;;;5033542;28;20664;-84
2023/12/17 08:40:54;;;;;;;35.90;18.83;;;7.70;99.90;;;;;;5034570;28;20181;-86
2023/12/17 08:43:22;;;;;;;29.90;18.13;;;7.60;99.90;;;;;;5034223;28;20169;-91
2023/12/17 08:45:49;;;;;;;27.80;16.50;;;7.60;99.90;;;;;;5032696;28;20281;-94
2023/12/17 08:48:15;;;;;;;32.10;16.10;;;7.50;99.90;;;;;;5030191;28;20177;-89
2023/12/17 08:50:43;;;;;;;27.40;17.17;;;7.40;99.90;;;;;;5037600;28;20186;-86
2023/12/17 08:53:22;;;;;;;26.83;16.13;;;7.30;99.90;;;;;;5030475;28;20209;-87
2023/12/17 08:55:57;;;;;;;24.13;15.27;;;7.20;99.90;;;;;;5037227;28;20250;-88
2023/12/17 08:58:23;;;;;;;25.20;16.33;;;7.20;99.90;;;;;;5023167;28;20170;-94
2023/12/17 09:00:56;;;;;;;29.73;16.67;;;7.30;99.90;;;;;;5020768;28;20228;-90
2023/12/17 09:03:34;;;;;;;25.87;15.80;;;7.30;99.90;;;;;;5021443;28;20197;-88
2023/12/17 09:06:11;;;;;;;25.97;15.00;;;7.40;99.90;;;;;;5030901;28;20154;-87
2023/12/17 09:08:37;;;;;;;28.33;16.70;;;7.40;99.90;;;;;;5025220;28;20224;-85
2023/12/17 09:11:03;;;;;;;27.50;16.23;;;7.50;99.90;;;;;;5019215;28;20194;-95
2023/12/17 09:13:28;;;;;;;28.27;16.87;;;7.50;99.90;;;;;;5024510;28;20596;-89
2023/12/17 09:15:54;;;;;;;27.23;17.10;;;7.80;99.90;;;;;;5021205;28;20613;-94
2023/12/17 09:18:21;;;;;;;27.70;15.70;;;7.80;99.90;;;;;;5032216;28;20257;-87
2023/12/17 09:21:12;;;;;;;25.77;15.10;;;7.80;99.90;;;;;;5032994;28;20170;-86
2023/12/17 09:23:37;;;;;;;27.83;15.43;;;7.90;99.90;;;;;;5035579;28;20170;-86
2023/12/17 09:26:20;;;;;;;21.10;13.80;;;7.90;99.90;;;;;;5037228;28;20216;-86
2023/12/17 09:28:49;;;;;;;22.37;13.67;;;7.90;99.90;;;;;;5036552;28;20150;-85
2023/12/17 09:31:28;;;;;;;25.67;13.87;;;7.90;99.90;;;;;;5030309;28;20162;-92
2023/12/17 09:33:57;;;;;;;22.53;13.00;;;7.80;99.90;;;;;;5034420;28;20197;-87
2023/12/17 09:36:49;;;;;;;21.53;12.67;;;7.80;99.90;;;;;;5035534;28;20162;-86
2023/12/17 09:39:16;;;;;;;25.03;13.03;;;7.80;99.90;;;;;;5033559;28;20178;-87
2023/12/17 09:42:00;;;;;;;26.23;13.03;;;7.80;99.90;;;;;;5023530;28;20190;-88
2023/12/17 09:44:27;;;;;;;21.30;12.13;;;7.90;99.90;;;;;;5022563;28;20553;-94
2023/12/17 09:46:54;;;;;;;22.27;13.13;;;7.90;99.90;;;;;;5025351;28;20167;-84
2023/12/17 09:49:20;;;;;;;23.10;11.87;;;8.00;99.90;;;;;;5019648;28;20324;-96
2023/12/17 09:51:57;;;;;;;24.27;11.50;;;8.20;99.90;;;;;;5020766;28;20193;-92
2023/12/17 09:54:22;;;;;;;22.43;11.37;;;8.20;99.90;;;;;;5017836;28;20206;-93
2023/12/17 09:56:48;;;;;;;24.63;10.77;;;8.20;99.90;;;;;;5017352;28;20533;-90
2023/12/17 09:59:14;;;;;;;20.60;11.60;;;8.10;99.90;;;;;;5016017;28;20714;-92
2023/12/17 10:01:39;;;;;;;22.70;11.90;;;8.20;99.90;;;;;;5017193;28;20178;-89
2023/12/17 10:04:05;;;;;;;20.43;10.93;;;8.30;99.90;;;;;;5016572;28;20185;-90
2023/12/17 10:06:34;;;;;;;17.23;9.67;;;8.40;99.90;;;;;;5016449;28;20182;-88
2023/12/17 10:09:00;;;;;;;21.40;10.30;;;8.40;99.90;;;;;;5015886;28;20216;-88
2023/12/17 10:11:27;;;;;;;21.77;10.67;;;8.40;99.90;;;;;;5016399;28;20182;-88
2023/12/17 10:13:53;;;;;;;17.87;9.20;;;8.40;99.90;;;;;;5015467;28;20216;-91
2023/12/17 10:16:22;;;;;;;17.47;9.07;;;8.40;99.90;;;;;;5016878;28;20265;-89
2023/12/17 10:18:50;;;;;;;20.57;9.17;;;8.40;99.90;;;;;;5017414;28;20582;-89
2023/12/17 10:21:17;;;;;;;20.37;9.27;;;8.50;99.90;;;;;;5015721;28;20649;-88
2023/12/17 10:23:52;;;;;;;17.40;8.90;;;8.60;99.90;;;;;;5016268;28;20178;-90
2023/12/17 10:26:19;;;;;;;17.30;9.47;;;8.60;99.90;;;;;;5018030;28;20244;-91
2023/12/17 10:28:48;;;;;;;19.90;9.63;;;8.60;99.90;;;;;;5017513;28;20672;-90
2023/12/17 10:31:16;;;;;;;20.37;9.90;;;8.70;99.90;;;;;;5019977;28;20214;-93
2023/12/17 10:33:54;;;;;;;18.90;9.70;;;8.70;99.90;;;;;;5005740;28;20214;-89
2023/12/17 10:36:21;;;;;;;20.40;9.53;;;8.80;99.90;;;;;;5017176;28;20166;-92
2023/12/17 10:38:48;;;;;;;14.40;8.40;;;8.90;99.90;;;;;;5018336;28;20182;-93
2023/12/17 10:41:15;;;;;;;18.13;7.60;;;8.90;99.90;;;;;;5021353;28;20510;-90
2023/12/17 10:43:42;;;;;;;17.97;7.73;;;8.90;99.40;;;;;;5022575;28;20225;-95
2023/12/17 10:46:10;;;;;;;15.70;7.97;;;9.00;97.20;;;;;;5018329;28;20173;-88
2023/12/17 10:48:37;;;;;;;14.93;7.30;;;8.90;96.80;;;;;;5018211;28;20205;-89
2023/12/17 10:51:03;;;;;;;16.97;7.67;;;8.90;97.40;;;;;;5017002;28;20178;-91
2023/12/17 10:53:29;;;;;;;13.10;8.43;;;9.00;97.90;;;;;;5017212;28;20256;-95
2023/12/17 10:55:55;;;;;;;12.13;7.80;;;9.10;97.60;;;;;;5020428;28;20178;-90
2023/12/17 10:58:22;;;;;;;13.73;7.40;;;9.30;94.70;;;;;;5036129;28;20222;-90
2023/12/17 11:00:49;;;;;;;11.10;6.93;;;9.40;93.30;;;;;;5036149;28;20177;-94
2023/12/17 11:03:15;;;;;;;13.97;7.67;;;9.30;93.20;;;;;;5037932;28;20181;-94
2023/12/17 11:05:58;;;;;;;14.80;8.20;;;9.30;92.30;;;;;;5037300;28;20696;-91
2023/12/17 11:08:26;;;;;;;13.33;8.07;;;9.30;91.50;;;;;;5037149;28;20695;-94
2023/12/17 11:10:52;;;;;;;15.13;8.10;;;9.20;92.60;;;;;;5036364;28;20244;-95
2023/12/17 11:13:24;;;;;;;13.63;7.63;;;9.10;93.30;;;;;;5035776;28;20762;-91
2023/12/17 11:15:52;;;;;;;15.47;8.73;;;9.10;93.60;;;;;;5036230;28;20169;-91
2023/12/17 11:18:17;;;;;;;16.87;8.40;;;9.10;94.40;;;;;;5035099;28;20220;-91
2023/12/17 11:20:46;;;;;;;14.03;7.60;;;9.10;94.90;;;;;;5034789;28;20173;-92
2023/12/17 11:23:14;;;;;;;14.13;7.90;;;9.20;94.50;;;;;;5034336;28;20196;-87
2023/12/17 11:25:40;;;;;;;15.60;8.57;;;9.20;93.50;;;;;;5035198;28;20194;-86
2023/12/17 11:28:07;;;;;;;14.97;8.40;;;9.20;93.60;;;;;;5034760;28;20170;-90
2023/12/17 11:30:34;;;;;;;16.57;9.13;;;9.20;93.00;;;;;;5036845;28;20170;-90
2023/12/17 11:33:01;;;;;;;12.10;8.03;;;9.30;92.20;;;;;;5036070;28;20217;-88
2023/12/17 11:35:28;;;;;;;10.97;7.40;;;9.30;91.90;;;;;;5034106;28;20166;-88
2023/12/17 11:37:55;;;;;;;15.90;8.40;;;9.30;92.30;;;;;;5033515;28;20638;-88
2023/12/17 11:40:21;;;;;;;13.53;7.77;;;9.30;92.20;;;;;;5033602;28;20169;-87
2023/12/17 11:43:01;;;;;;;14.33;8.10;;;9.40;91.10;;;;;;5034004;28;20180;-87
2023/12/17 11:45:48;;;;;;;14.53;8.77;;;9.40;91.20;;;;;;5034791;28;20169;-88
2023/12/17 11:48:16;;;;;;;15.83;8.67;;;9.50;91.20;;;;;;5034975;28;20161;-90
2023/12/17 11:50:44;;;;;;;13.80;7.97;;;9.40;91.50;;;;;;5034963;28;20177;-86
2023/12/17 11:53:12;;;;;;;12.70;8.03;;;9.50;90.30;;;;;;5035007;28;20213;-93
2023/12/17 11:55:42;;;;;;;13.23;7.93;;;9.50;90.90;;;;;;5034692;28;20180;-89
2023/12/17 11:58:07;;;;;;;15.30;8.90;;;9.50;91.70;;;;;;5033772;28;20634;-92
2023/12/17 12:00:33;;;;;;;11.43;7.30;;;9.60;90.80;;;;;;5035042;28;20172;-92
2023/12/17 12:02:59;;;;;;;15.37;7.60;;;9.60;90.00;;;;;;5034767;28;20533;-88
2023/12/17 12:05:24;;;;;;;16.67;8.63;;;9.60;86.50;;;;;;5033910;28;20188;-86
2023/12/17 12:07:57;;;;;;;14.70;8.43;;;9.60;86.80;;;;;;5033675;28;20182;-88
2023/12/17 12:10:23;;;;;;;14.60;7.70;;;9.60;89.20;;;;;;5032733;28;20281;-88
2023/12/17 12:13:07;;;;;;;15.23;8.97;;;9.60;86.80;;;;;;5034125;28;20229;-89
2023/12/17 12:15:33;;;;;;;13.50;7.63;;;9.70;86.20;;;;;;5038321;28;20257;-90
2023/12/17 12:17:58;;;;;;;16.90;7.63;;;9.70;83.70;;;;;;5033236;28;20193;-91
2023/12/17 12:20:37;;;;;;;15.27;8.00;;;9.80;81.00;;;;;;5033281;28;20221;-88
2023/12/17 12:23:10;;;;;;;12.17;7.63;;;10.00;80.20;;;;;;5013274;28;20174;-90
2023/12/17 12:25:38;;;;;;;12.70;7.67;;;10.00;79.80;;;;;;5020071;28;20654;-88
2023/12/17 12:28:06;;;;;;;13.67;8.23;;;10.00;79.80;;;;;;5033119;28;20268;-90
2023/12/17 12:30:32;;;;;;;15.73;8.03;;;10.00;78.30;;;;;;5033815;28;20174;-90
2023/12/17 12:33:27;;;;;;;13.43;7.90;;;10.00;76.50;;;;;;5033122;28;20202;-89
2023/12/17 12:36:05;;;;;;;14.03;7.83;;;10.00;76.60;;;;;;4993023;28;20182;-86
2023/12/17 12:38:32;;;;;;;13.47;7.90;;;10.00;78.40;;;;;;5013128;28;20687;-89